Time;durP1;ratioP1;P1;durP2;ratioP2;P2;SDS_P1;SDS_P2;PMS_P1;PMS_P2;Temp;Humidity;BMP_temperature;BMP_pressure;BME280_temperature;BME280_humidity;BME280_pressure;Samples;Min_cycle;Max_cycle;Signal;HPM_P1;HPM_P2
2023/01/07 00:01:31;;;;;;;0.80;0.77;;;;;;;11.66;100.00;100674.88;5015314;28;20478;-55
2023/01/07 00:03:59;;;;;;;0.50;0.50;;;;;;;11.64;100.00;100676.66;5015057;28;20441;-54
2023/01/07 00:06:34;;;;;;;0.50;0.40;;;;;;;11.61;100.00;100674.09;5007617;28;20518;-54
2023/01/07 00:09:03;;;;;;;0.40;0.37;;;;;;;11.59;100.00;100679.47;5002791;28;20552;-55
2023/01/07 00:11:32;;;;;;;0.67;0.67;;;;;;;11.60;100.00;100678.53;5009217;28;20552;-55
2023/01/07 00:14:00;;;;;;;1.13;0.60;;;;;;;11.61;100.00;100682.06;5015204;28;20492;-54
2023/01/07 00:16:28;;;;;;;0.70;0.47;;;;;;;11.61;100.00;100682.06;5014817;28;20453;-53
2023/01/07 00:18:57;;;;;;;8.90;0.57;;;;;;;11.49;100.00;100683.28;5015076;28;20452;-55
2023/01/07 00:21:25;;;;;;;0.63;0.40;;;;;;;11.59;100.00;100682.13;5014746;28;20943;-55
2023/01/07 00:23:57;;;;;;;0.60;0.60;;;;;;;11.51;100.00;100682.34;4988767;28;20496;-55
2023/01/07 00:26:26;;;;;;;0.60;0.50;;;;;;;11.63;100.00;100677.59;5008181;28;20972;-54
2023/01/07 00:28:53;;;;;;;0.50;0.50;;;;;;;11.54;100.00;100668.06;5005158;28;20453;-54
2023/01/07 00:31:21;;;;;;;0.93;0.80;;;;;;;11.57;100.00;100674.19;5014587;28;20860;-54
2023/01/07 00:36:26;;;;;;;0.50;0.40;;;;;;;11.52;100.00;100676.09;5009081;28;20460;-53
2023/01/07 00:38:55;;;;;;;0.70;0.60;;;;;;;11.47;100.00;100666.47;5002026;28;20462;-54
2023/01/07 00:41:22;;;;;;;0.50;0.40;;;;;;;11.56;100.00;100669.78;5014181;28;20483;-54
2023/01/07 00:43:49;;;;;;;9.20;1.07;;;;;;;11.54;100.00;100658.28;5001383;28;20963;-54
2023/01/07 00:46:15;;;;;;;1.67;0.70;;;;;;;11.49;100.00;100651.31;5007824;28;20453;-53
2023/01/07 00:48:43;;;;;;;0.80;0.80;;;;;;;11.44;100.00;100651.47;5007630;28;20543;-54
2023/01/07 00:51:12;;;;;;;0.60;0.50;;;;;;;11.44;100.00;100650.59;5001285;28;20463;-53
2023/01/07 00:53:38;;;;;;;0.50;0.40;;;;;;;11.42;100.00;100650.63;5004215;28;20870;-52
2023/01/07 00:56:05;;;;;;;0.90;0.77;;;;;;;11.39;100.00;100642.72;5001746;28;20496;-53
2023/01/07 00:58:31;;;;;;;1.07;0.97;;;;;;;11.47;100.00;100639.84;5000735;28;20473;-53
2023/01/07 01:01:00;;;;;;;1.03;0.93;;;;;;;11.41;100.00;100640.91;5014260;28;20448;-54
2023/01/07 01:03:28;;;;;;;0.67;0.50;;;;;;;11.39;100.00;100634.75;5000466;28;20461;-54
2023/01/07 01:06:00;;;;;;;1.10;1.00;;;;;;;11.45;100.00;100633.69;5013910;28;20936;-54
2023/01/07 01:08:26;;;;;;;0.90;0.60;;;;;;;11.41;100.00;100630.25;4997189;28;20472;-54
2023/01/07 01:10:53;;;;;;;0.77;0.60;;;;;;;11.53;100.00;100621.94;5014211;28;20448;-54
2023/01/07 01:13:19;;;;;;;0.80;0.80;;;;;;;11.39;100.00;100624.09;5011906;28;20457;-54
2023/01/07 01:15:47;;;;;;;0.70;0.53;;;;;;;11.41;100.00;100630.25;5002592;28;20546;-53
2023/01/07 01:18:14;;;;;;;1.93;0.70;;;;;;;11.34;100.00;100630.44;5000605;28;20847;-55
2023/01/07 01:20:41;;;;;;;0.80;0.80;;;;;;;11.30;100.00;100632.31;5013535;28;20449;-55
2023/01/07 01:23:08;;;;;;;0.70;0.70;;;;;;;11.31;100.00;100635.84;5013537;28;20448;-54
2023/01/07 01:25:34;;;;;;;1.40;0.70;;;;;;;11.34;100.00;100630.44;5013723;28;20449;-55
2023/01/07 01:28:01;;;;;;;1.83;0.90;;;;;;;11.28;100.00;100628.81;5010402;28;20464;-54
2023/01/07 01:30:27;;;;;;;0.47;0.47;;;;;;;11.36;100.00;100626.81;5003187;28;20854;-54
2023/01/07 01:32:54;;;;;;;0.80;0.67;;;;;;;11.33;100.00;100626.03;5000071;28;20945;-54
2023/01/07 01:35:20;;;;;;;0.53;0.50;;;;;;;11.31;100.00;100626.06;5013396;28;21005;-54
2023/01/07 01:37:46;;;;;;;0.70;0.70;;;;;;;11.27;100.00;100627.06;5010503;28;20481;-53
2023/01/07 01:40:13;;;;;;;0.80;0.77;;;;;;;11.22;100.00;100626.31;5003725;28;20452;-55
2023/01/07 01:42:40;;;;;;;0.60;0.60;;;;;;;11.27;100.00;100627.06;5009733;28;20488;-55
2023/01/07 01:45:06;;;;;;;1.17;0.67;;;;;;;11.35;100.00;100630.41;5003805;28;20424;-55
2023/01/07 01:47:48;;;;;;;0.87;0.70;;;;;;;11.18;100.00;100627.31;4999872;28;20557;-54
2023/01/07 01:50:25;;;;;;;0.60;0.60;;;;;;;11.23;100.00;100620.06;5013381;28;20449;-54
2023/01/07 01:52:51;;;;;;;0.60;0.50;;;;;;;11.23;100.00;100620.94;4993760;28;20449;-53
2023/01/07 01:55:22;;;;;;;0.63;0.63;;;;;;;11.34;100.00;100615.34;5006929;28;20559;-55
2023/01/07 01:57:54;;;;;;;0.77;0.77;;;;;;;11.28;100.00;100608.41;5001555;28;20891;-54
2023/01/07 02:00:20;;;;;;;0.83;0.50;;;;;;;11.21;100.00;100614.78;5013004;28;20847;-55
2023/01/07 02:02:51;;;;;;;0.50;0.50;;;;;;;11.21;100.00;100614.78;5013158;28;20479;-55
2023/01/07 02:05:17;;;;;;;0.47;0.40;;;;;;;11.28;100.00;100613.72;5012913;28;20507;-55
2023/01/07 02:07:44;;;;;;;0.70;0.70;;;;;;;11.14;100.00;100602.56;4998240;28;20836;-55
2023/01/07 02:10:13;;;;;;;0.60;0.50;;;;;;;11.22;100.00;100607.69;5009438;28;20448;-54
2023/01/07 02:12:45;;;;;;;0.40;0.40;;;;;;;11.16;100.00;100605.19;5002582;28;20465;-54
2023/01/07 02:15:43;;;;;;;5.13;0.80;;;;;;;11.17;100.00;100601.63;5006432;28;20555;-53
2023/01/07 02:18:19;;;;;;;0.50;0.40;;;;;;;11.16;100.00;100597.22;4997140;28;20487;-55
2023/01/07 02:21:00;;;;;;;3.33;0.73;;;;;;;11.12;100.00;100595.56;5012756;28;20494;-54
2023/01/07 02:24:07;;;;;;;0.40;0.33;;;;;;;11.12;100.00;100593.75;5012843;28;20445;-54
2023/01/07 02:27:11;;;;;;;0.50;0.30;;;;;;;11.08;100.00;100591.19;4998977;28;20472;-54
2023/01/07 02:30:13;;;;;;;0.63;0.40;;;;;;;11.06;100.00;100599.22;5012860;28;20448;-55
2023/01/07 02:33:09;;;;;;;0.70;0.70;;;;;;;11.06;100.00;100590.38;5012181;28;20471;-55
2023/01/07 02:35:45;;;;;;;0.50;0.40;;;;;;;10.91;100.00;100584.53;5012475;28;20491;-54
2023/01/07 02:38:33;;;;;;;0.80;0.80;;;;;;;10.96;100.00;100587.97;5005333;28;20484;-54
2023/01/07 02:41:27;;;;;;;0.87;0.50;;;;;;;10.82;100.00;100578.56;5009314;28;20803;-54
2023/01/07 02:44:03;;;;;;;0.50;0.30;;;;;;;11.03;100.00;100578.03;5003261;28;20456;-54
2023/01/07 02:46:39;;;;;;;2.43;0.73;;;;;;;11.05;100.00;100575.31;5012446;28;20842;-54
2023/01/07 02:49:10;;;;;;;0.40;0.40;;;;;;;11.07;100.00;100571.69;4981986;28;20972;-54
2023/01/07 02:51:39;;;;;;;0.60;0.50;;;;;;;11.13;100.00;100568.91;5002470;28;20457;-55
2023/01/07 02:54:11;;;;;;;2.50;0.80;;;;;;;11.09;100.00;100569.00;5000035;28;20463;-55
2023/01/07 02:56:56;;;;;;;0.50;0.40;;;;;;;11.12;100.00;100574.25;5004481;28;20493;-54
2023/01/07 02:59:40;;;;;;;0.60;0.53;;;;;;;11.14;100.00;100564.44;5000430;28;20449;-54
2023/01/07 03:02:24;;;;;;;0.43;0.37;;;;;;;11.16;100.00;100566.16;5012337;28;20543;-54
2023/01/07 03:05:14;;;;;;;2.73;0.40;;;;;;;11.14;100.00;100564.44;5012666;28;20455;-53
2023/01/07 03:07:49;;;;;;;0.40;0.30;;;;;;;11.08;100.00;100557.47;4999281;28;20493;-55
2023/01/07 03:10:25;;;;;;;0.40;0.30;;;;;;;11.09;100.00;100566.34;5006500;28;20456;-54
2023/01/07 03:13:06;;;;;;;0.60;0.40;;;;;;;11.05;100.00;100549.59;5012263;28;20451;-54
2023/01/07 03:15:40;;;;;;;3.13;0.60;;;;;;;11.02;100.00;100559.44;5012495;28;20488;-54
2023/01/07 03:18:13;;;;;;;1.23;0.40;;;;;;;10.98;100.00;100553.34;5012417;28;20471;-54
2023/01/07 03:20:43;;;;;;;2.83;0.60;;;;;;;10.99;100.00;100552.44;5012424;28;20527;-54
2023/01/07 03:23:12;;;;;;;1.20;0.50;;;;;;;11.01;100.00;100550.59;5009322;28;20461;-53
2023/01/07 03:25:45;;;;;;;0.40;0.33;;;;;;;10.90;100.00;100539.34;4999467;28;20540;-53
2023/01/07 03:28:16;;;;;;;0.40;0.30;;;;;;;10.86;100.00;100541.22;5009704;28;20985;-54
2023/01/07 03:30:45;;;;;;;5.60;0.77;;;;;;;10.79;100.00;100542.28;5012247;28;20452;-54
2023/01/07 03:33:36;;;;;;;1.17;0.50;;;;;;;10.82;100.00;100544.00;5006521;28;20500;-54
2023/01/07 03:36:03;;;;;;;0.80;0.43;;;;;;;10.77;100.00;100540.59;5005155;28;20856;-54
2023/01/07 03:38:32;;;;;;;0.43;0.33;;;;;;;10.77;100.00;100540.59;4982136;28;21070;-52
2023/01/07 03:40:59;;;;;;;0.50;0.50;;;;;;;10.91;100.00;100534.00;5008400;28;20457;-53
2023/01/07 03:43:25;;;;;;;0.50;0.50;;;;;;;10.89;100.00;100533.16;5014847;28;20448;-54
2023/01/07 03:45:53;;;;;;;1.03;1.03;;;;;;;10.89;100.00;100532.28;5014711;28;20448;-53
2023/01/07 03:48:19;;;;;;;0.40;0.30;;;;;;;10.92;100.00;100534.88;5015519;28;21044;-54
2023/01/07 03:50:45;;;;;;;0.50;0.50;;;;;;;10.97;100.00;100530.31;5002382;28;20456;-54
2023/01/07 03:53:12;;;;;;;0.40;0.30;;;;;;;10.96;100.00;100525.88;5005722;28;20958;-53
2023/01/07 03:55:38;;;;;;;1.93;0.57;;;;;;;10.95;100.00;100526.81;5012505;28;20558;-54
2023/01/07 03:58:05;;;;;;;0.40;0.30;;;;;;;10.92;100.00;100521.56;5015349;28;21027;-54
2023/01/07 04:00:32;;;;;;;0.50;0.40;;;;;;;10.76;100.00;100515.78;5015345;28;20475;-53
2023/01/07 04:02:59;;;;;;;0.50;0.40;;;;;;;10.73;100.00;100517.66;5015396;28;20531;-54
2023/01/07 04:05:25;;;;;;;0.57;0.47;;;;;;;10.81;100.00;100513.00;5014329;28;20440;-54
2023/01/07 04:07:52;;;;;;;1.47;0.60;;;;;;;10.75;100.00;100505.19;5005482;28;20572;-54
2023/01/07 04:10:19;;;;;;;1.33;0.50;;;;;;;10.75;100.00;100508.72;5012507;28;20828;-54
2023/01/07 04:12:45;;;;;;;0.60;0.50;;;;;;;10.76;100.00;100507.81;5015403;28;20434;-54
2023/01/07 04:15:12;;;;;;;0.40;0.30;;;;;;;10.74;100.00;100506.97;5015199;28;20492;-54
2023/01/07 04:17:38;;;;;;;0.50;0.50;;;;;;;10.74;100.00;100509.63;5015103;28;20850;-54
2023/01/07 04:20:06;;;;;;;0.37;0.30;;;;;;;10.70;100.00;100502.66;5001696;28;20496;-54
2023/01/07 04:22:33;;;;;;;0.60;0.50;;;;;;;10.73;100.00;100501.69;5015284;28;20488;-54
2023/01/07 04:24:59;;;;;;;0.70;0.63;;;;;;;10.81;100.00;100497.03;5015212;28;20468;-53
2023/01/07 04:27:26;;;;;;;0.40;0.30;;;;;;;10.79;100.00;100490.88;5014991;28;21033;-53
2023/01/07 04:29:52;;;;;;;0.93;0.93;;;;;;;10.66;100.00;100495.66;5014767;28;20456;-54
2023/01/07 04:32:19;;;;;;;0.50;0.33;;;;;;;10.74;100.00;100476.84;4997971;28;20453;-54
2023/01/07 04:34:45;;;;;;;0.40;0.30;;;;;;;10.70;100.00;100468.09;4981022;28;20508;-54
2023/01/07 04:37:11;;;;;;;0.30;0.30;;;;;;;10.24;100.00;100455.09;5007612;28;20993;-53
2023/01/07 04:39:38;;;;;;;0.93;0.30;;;;;;;10.31;100.00;100462.00;5001655;28;20452;-54
2023/01/07 04:42:04;;;;;;;0.50;0.30;;;;;;;10.36;100.00;100460.97;5014337;28;20541;-53
2023/01/07 04:44:31;;;;;;;0.40;0.40;;;;;;;10.43;100.00;100460.84;5001086;28;20962;-53
2023/01/07 04:46:57;;;;;;;0.43;0.40;;;;;;;10.62;100.00;100468.28;5014452;28;20472;-53
2023/01/07 04:49:23;;;;;;;0.50;0.40;;;;;;;10.64;100.00;100469.13;5001366;28;20427;-54
2023/01/07 04:51:50;;;;;;;0.90;0.40;;;;;;;10.75;100.00;100468.84;5014779;28;20457;-53
2023/01/07 04:54:16;;;;;;;0.60;0.40;;;;;;;10.76;100.00;100459.06;5014003;28;20453;-54
2023/01/07 04:56:43;;;;;;;0.40;0.30;;;;;;;10.71;100.00;100451.22;5015561;28;20848;-55
2023/01/07 04:59:09;;;;;;;0.53;0.43;;;;;;;10.71;100.00;100451.22;5015362;28;20457;-54
2023/01/07 05:01:36;;;;;;;10.13;0.50;;;;;;;10.67;100.00;100449.53;5015643;28;20464;-54
2023/01/07 05:04:03;;;;;;;0.50;0.40;;;;;;;10.64;100.00;100462.94;5002751;28;20519;-54
2023/01/07 05:06:29;;;;;;;0.40;0.30;;;;;;;10.68;100.00;100448.63;5008241;28;20491;-54
2023/01/07 05:08:56;;;;;;;0.30;0.27;;;;;;;10.57;100.00;100448.06;5001142;28;20452;-53
2023/01/07 05:11:22;;;;;;;0.60;0.43;;;;;;;10.50;100.00;100452.66;4984799;28;20452;-54
2023/01/07 05:13:48;;;;;;;0.97;0.30;;;;;;;10.51;100.00;100442.88;5013013;28;20453;-54
2023/01/07 05:16:15;;;;;;;0.50;0.40;;;;;;;10.51;100.00;100443.75;5001914;28;20489;-53
2023/01/07 05:18:42;;;;;;;0.50;0.30;;;;;;;10.53;100.00;100438.41;5000559;28;20872;-54
2023/01/07 05:21:11;;;;;;;0.60;0.40;;;;;;;10.57;100.00;100432.13;5013814;28;20957;-53
2023/01/07 05:23:38;;;;;;;0.67;0.47;;;;;;;10.49;100.00;100437.63;5000683;28;20453;-53
2023/01/07 05:26:04;;;;;;;0.50;0.30;;;;;;;10.53;100.00;100433.09;5001226;28;20457;-54
2023/01/07 05:28:31;;;;;;;0.47;0.40;;;;;;;10.47;100.00;100420.84;5013344;28;20977;-53
2023/01/07 05:30:57;;;;;;;1.53;0.50;;;;;;;10.48;100.00;100424.38;5012668;28;20510;-52
2023/01/07 05:33:24;;;;;;;0.50;0.37;;;;;;;10.43;100.00;100423.63;5004181;28;20997;-53
2023/01/07 05:35:50;;;;;;;0.50;0.47;;;;;;;10.37;100.00;100429.97;5010878;28;20562;-53
2023/01/07 05:38:17;;;;;;;0.90;0.30;;;;;;;10.21;100.00;100417.94;5007175;28;20487;-52
2023/01/07 05:40:47;;;;;;;0.50;0.40;;;;;;;10.18;100.00;100415.38;5006517;28;20860;-52
2023/01/07 05:43:16;;;;;;;0.53;0.43;;;;;;;10.13;100.00;100417.25;5001096;28;20528;-51
2023/01/07 05:45:45;;;;;;;1.90;0.30;;;;;;;10.19;100.00;100417.97;5000248;28;20446;-52
2023/01/07 05:48:12;;;;;;;0.53;0.30;;;;;;;10.51;100.00;100411.88;5002982;28;20496;-52
2023/01/07 05:50:39;;;;;;;0.50;0.50;;;;;;;10.29;100.00;100422.19;4995904;28;20900;-52
2023/01/07 05:53:06;;;;;;;0.60;0.50;;;;;;;10.15;100.00;100407.47;5002182;28;20988;-51
2023/01/07 05:55:32;;;;;;;0.57;0.40;;;;;;;10.33;100.00;100415.00;5008346;28;20496;-52
2023/01/07 05:57:58;;;;;;;0.60;0.50;;;;;;;10.24;100.00;100412.56;4994321;28;20862;-52
2023/01/07 06:00:25;;;;;;;1.47;0.50;;;;;;;10.18;100.00;100408.28;5009076;28;20946;-52
2023/01/07 06:02:51;;;;;;;0.40;0.30;;;;;;;10.15;100.00;100405.69;5003327;28;20457;-51
2023/01/07 06:05:18;;;;;;;0.60;0.47;;;;;;;10.12;100.00;100405.75;4982556;28;20483;-51
2023/01/07 06:07:44;;;;;;;0.40;0.40;;;;;;;10.03;100.00;100400.69;5000102;28;20531;-51
2023/01/07 06:10:11;;;;;;;0.67;0.50;;;;;;;10.17;100.00;100397.69;5008840;28;20452;-52
2023/01/07 06:12:37;;;;;;;0.70;0.50;;;;;;;10.17;100.00;100406.53;5002793;28;20455;-51
2023/01/07 06:15:06;;;;;;;0.97;0.70;;;;;;;10.09;100.00;100398.75;4999451;28;20440;-52
2023/01/07 06:17:32;;;;;;;3.37;0.53;;;;;;;10.19;100.00;100399.38;5002526;28;20956;-52
2023/01/07 06:19:59;;;;;;;0.93;0.50;;;;;;;10.05;100.00;100396.22;5000376;28;20465;-52
2023/01/07 06:22:25;;;;;;;0.47;0.40;;;;;;;10.09;100.00;100393.44;4993642;28;20472;-51
2023/01/07 06:24:52;;;;;;;0.40;0.30;;;;;;;10.10;100.00;100389.84;5010305;28;20449;-52
2023/01/07 06:27:18;;;;;;;0.90;0.53;;;;;;;10.13;100.00;100391.56;5003078;28;20469;-53
2023/01/07 06:29:45;;;;;;;0.40;0.30;;;;;;;10.17;100.00;100392.38;5009199;28;20476;-52
2023/01/07 06:32:11;;;;;;;0.50;0.30;;;;;;;10.21;100.00;100389.63;5005331;28;20975;-52
2023/01/07 06:34:37;;;;;;;0.70;0.53;;;;;;;10.12;100.00;100381.84;4995369;28;20450;-52
2023/01/07 06:37:04;;;;;;;0.40;0.30;;;;;;;10.22;100.00;100372.78;5003684;28;20492;-51
2023/01/07 06:39:31;;;;;;;2.30;0.57;;;;;;;10.11;100.00;100382.75;4999366;28;20467;-51
2023/01/07 06:41:57;;;;;;;0.60;0.60;;;;;;;10.21;100.00;100379.00;5007897;28;20543;-51
2023/01/07 06:44:24;;;;;;;0.40;0.27;;;;;;;10.17;100.00;100373.78;5007328;28;20465;-51
2023/01/07 06:46:50;;;;;;;0.80;0.40;;;;;;;10.29;100.00;100374.38;5008068;28;20564;-51
2023/01/07 06:49:16;;;;;;;0.40;0.30;;;;;;;10.25;100.00;100366.50;5007788;28;20462;-52
2023/01/07 06:51:43;;;;;;;2.83;1.07;;;;;;;10.24;100.00;100362.97;5000283;28;20450;-52
2023/01/07 06:54:09;;;;;;;0.60;0.40;;;;;;;10.22;100.00;100355.97;5000754;28;20504;-53
2023/01/07 06:56:36;;;;;;;1.83;1.73;;;;;;;10.20;100.00;100349.78;4993218;28;20488;-52
2023/01/07 06:59:02;;;;;;;0.90;0.30;;;;;;;10.09;100.00;100342.09;5008920;28;20524;-52
2023/01/07 07:01:29;;;;;;;1.13;0.73;;;;;;;10.10;100.00;100339.41;5007541;28;20475;-52
2023/01/07 07:03:55;;;;;;;0.60;0.40;;;;;;;9.97;100.00;100342.41;4998362;28;20452;-52
2023/01/07 07:06:22;;;;;;;0.83;0.30;;;;;;;9.99;100.00;100353.84;5004128;28;20867;-51
2023/01/07 07:08:48;;;;;;;0.40;0.30;;;;;;;10.05;100.00;100341.31;5006508;28;20449;-51
2023/01/07 07:11:15;;;;;;;0.30;0.27;;;;;;;9.94;100.00;100338.03;5002071;28;20468;-52
2023/01/07 07:13:41;;;;;;;3.90;1.13;;;;;;;10.11;100.00;100340.25;5010258;28;20452;-51
2023/01/07 07:16:07;;;;;;;8.00;0.33;;;;;;;10.05;100.00;100337.78;5005046;28;20491;-51
2023/01/07 07:18:34;;;;;;;4.93;0.93;;;;;;;10.08;100.00;100329.72;5014835;28;20543;-51
2023/01/07 07:21:00;;;;;;;0.50;0.37;;;;;;;10.24;100.00;100328.44;5016272;28;20456;-52
2023/01/07 07:23:27;;;;;;;0.50;0.30;;;;;;;10.31;100.00;100334.47;5016102;28;20464;-51
2023/01/07 07:25:53;;;;;;;0.50;0.40;;;;;;;10.14;100.00;100326.03;5015934;28;20535;-51
2023/01/07 07:28:20;;;;;;;2.10;0.47;;;;;;;10.21;100.00;100327.63;5015820;28;20468;-51
2023/01/07 07:30:46;;;;;;;0.30;0.20;;;;;;;10.32;100.00;100326.47;5010031;28;20460;-51
2023/01/07 07:33:14;;;;;;;1.33;0.97;;;;;;;10.42;100.00;100320.91;5003963;28;20448;-51
2023/01/07 07:35:41;;;;;;;0.87;0.60;;;;;;;10.46;100.00;100326.09;5003480;28;20457;-50
2023/01/07 07:38:07;;;;;;;0.67;0.40;;;;;;;10.48;100.00;100324.25;5009014;28;20509;-52
2023/01/07 07:40:34;;;;;;;0.90;0.57;;;;;;;10.48;100.00;100326.91;5006047;28;20543;-50
2023/01/07 07:43:00;;;;;;;0.40;0.30;;;;;;;10.42;100.00;100320.91;5001988;28;20453;-52
2023/01/07 07:45:41;;;;;;;0.83;0.70;;;;;;;10.59;100.00;100314.19;5010350;28;20460;-52
2023/01/07 07:48:09;;;;;;;0.40;0.30;;;;;;;10.70;100.00;100315.69;5003722;28;20487;-52
2023/01/07 07:50:35;;;;;;;4.83;0.73;;;;;;;10.65;100.00;100315.81;5014082;28;20448;-52
2023/01/07 07:53:03;;;;;;;1.50;0.50;;;;;;;10.67;100.00;100313.97;5007635;28;20453;-51
2023/01/07 07:55:29;;;;;;;0.70;0.60;;;;;;;10.66;100.00;100312.22;5010572;28;20488;-53
2023/01/07 07:57:57;;;;;;;0.60;0.40;;;;;;;10.65;100.00;100307.81;5015224;28;20492;-52
2023/01/07 08:00:24;;;;;;;0.40;0.40;;;;;;;10.64;100.00;100304.31;5011850;28;20946;-52
2023/01/07 08:02:50;;;;;;;0.60;0.50;;;;;;;10.67;100.00;100306.00;5004860;28;20831;-51
2023/01/07 08:05:16;;;;;;;1.53;0.47;;;;;;;10.68;100.00;100307.72;5002069;28;20488;-52
2023/01/07 08:07:43;;;;;;;0.40;0.30;;;;;;;10.81;100.00;100305.59;5001141;28;20488;-52
2023/01/07 08:10:09;;;;;;;0.60;0.40;;;;;;;10.79;100.00;100307.44;5010735;28;20469;-51
2023/01/07 08:12:37;;;;;;;0.63;0.50;;;;;;;10.86;100.00;100312.53;5010342;28;20448;-53
2023/01/07 08:15:05;;;;;;;0.50;0.40;;;;;;;11.00;99.80;100303.28;5010359;28;20480;-52
2023/01/07 08:17:31;;;;;;;0.67;0.60;;;;;;;10.97;100.00;100297.13;5010466;28;20875;-52
2023/01/07 08:19:58;;;;;;;1.03;0.60;;;;;;;10.91;100.00;100293.78;5001558;28;20448;-52
2023/01/07 08:22:24;;;;;;;1.07;0.60;;;;;;;10.97;100.00;100285.63;5007465;28;20453;-51
2023/01/07 08:24:51;;;;;;;0.60;0.50;;;;;;;11.05;99.74;100282.72;5011254;28;20457;-52
2023/01/07 08:27:17;;;;;;;0.40;0.37;;;;;;;11.06;98.37;100284.47;5009135;28;20464;-52
2023/01/07 08:29:44;;;;;;;0.40;0.30;;;;;;;11.15;98.04;100276.22;5001356;28;20519;-52
2023/01/07 08:32:10;;;;;;;0.50;0.40;;;;;;;11.33;97.96;100275.63;5007305;28;20453;-52
2023/01/07 08:34:36;;;;;;;3.03;0.67;;;;;;;11.37;97.51;100266.59;5000996;28;20824;-52
2023/01/07 08:37:03;;;;;;;0.60;0.53;;;;;;;11.33;97.25;100269.44;5008309;28;20568;-52
2023/01/07 08:39:29;;;;;;;0.57;0.33;;;;;;;11.23;97.78;100264.38;5001606;28;20464;-52
2023/01/07 08:41:56;;;;;;;0.40;0.30;;;;;;;11.35;96.79;100262.25;5014018;28;20467;-52
2023/01/07 08:44:22;;;;;;;0.40;0.40;;;;;;;11.50;97.00;100251.97;5000755;28;20474;-53
2023/01/07 08:46:48;;;;;;;0.87;0.43;;;;;;;11.26;96.61;100253.66;5005345;28;21004;-52
2023/01/07 08:49:15;;;;;;;0.40;0.30;;;;;;;11.43;96.59;100253.13;5004576;28;20453;-52
2023/01/07 08:51:41;;;;;;;0.40;0.30;;;;;;;11.35;96.02;100254.28;5007516;28;20908;-53
2023/01/07 08:54:08;;;;;;;0.80;0.80;;;;;;;11.35;96.08;100248.94;5008982;28;20460;-54
2023/01/07 08:56:34;;;;;;;0.77;0.77;;;;;;;11.44;97.03;100236.22;5005676;28;20496;-53
2023/01/07 08:59:00;;;;;;;0.50;0.50;;;;;;;11.63;96.16;100238.25;5014258;28;20441;-54
2023/01/07 09:01:27;;;;;;;1.00;0.63;;;;;;;11.38;96.07;100220.47;5014419;28;20452;-53
2023/01/07 09:03:53;;;;;;;1.57;1.13;;;;;;;11.45;96.00;100222.00;5014279;28;20548;-54
2023/01/07 09:06:21;;;;;;;3.13;1.07;;;;;;;11.46;96.09;100230.84;5010464;28;20454;-54
2023/01/07 09:08:47;;;;;;;2.03;0.63;;;;;;;11.42;96.07;100222.09;4999866;28;20448;-54
2023/01/07 09:11:14;;;;;;;0.50;0.40;;;;;;;11.43;96.72;100217.66;5014046;28;20495;-54
2023/01/07 09:13:41;;;;;;;0.87;0.50;;;;;;;11.53;96.17;100213.75;5014041;28;20457;-54
2023/01/07 09:16:07;;;;;;;0.87;0.87;;;;;;;11.41;95.24;100225.69;5013896;28;20449;-54
2023/01/07 09:18:34;;;;;;;0.53;0.50;;;;;;;11.45;94.56;100210.47;5013874;28;20472;-53
2023/01/07 09:21:00;;;;;;;0.73;0.67;;;;;;;11.49;94.03;100215.63;5014097;28;20457;-53
2023/01/07 09:23:27;;;;;;;0.30;0.20;;;;;;;11.68;93.54;100210.56;5013802;28;20452;-54
2023/01/07 09:25:53;;;;;;;0.60;0.47;;;;;;;11.47;93.67;100201.50;5013693;28;20825;-54
2023/01/07 09:28:20;;;;;;;0.60;0.50;;;;;;;11.51;93.36;100208.50;5013700;28;20465;-54
2023/01/07 09:30:46;;;;;;;0.50;0.40;;;;;;;11.58;93.14;100207.34;5013702;28;20495;-54
2023/01/07 09:33:12;;;;;;;1.37;0.50;;;;;;;11.56;93.78;100217.19;5013715;28;21006;-53
2023/01/07 09:35:39;;;;;;;6.40;1.50;;;;;;;11.50;93.95;100212.06;5013610;28;20456;-53
2023/01/07 09:38:05;;;;;;;0.60;0.47;;;;;;;11.62;93.79;100220.56;5007878;28;20555;-54
2023/01/07 09:40:37;;;;;;;0.70;0.50;;;;;;;11.78;93.18;100209.31;5005204;28;20457;-54
2023/01/07 09:43:12;;;;;;;3.30;0.70;;;;;;;11.65;93.72;100215.13;5013637;28;20449;-53
2023/01/07 09:46:00;;;;;;;14.63;0.70;;;;;;;11.57;94.12;100221.59;5012717;28;20574;-53
2023/01/07 09:48:39;;;;;;;1.53;0.40;;;;;;;11.80;93.02;100220.84;5013448;28;20460;-54
2023/01/07 09:51:14;;;;;;;0.80;0.60;;;;;;;11.77;93.50;100212.91;5008139;28;20992;-54
2023/01/07 09:53:46;;;;;;;0.63;0.60;;;;;;;11.74;92.88;100214.81;5007531;28;20455;-53
2023/01/07 09:56:32;;;;;;;0.40;0.30;;;;;;;11.67;94.03;100211.50;5013047;28;20817;-53
2023/01/07 09:59:00;;;;;;;0.40;0.30;;;;;;;11.78;94.08;100208.44;5013013;28;20456;-53
2023/01/07 10:01:30;;;;;;;0.50;0.30;;;;;;;11.83;93.17;100201.22;5013125;28;20502;-54
2023/01/07 10:04:31;;;;;;;0.40;0.30;;;;;;;11.67;92.20;100203.50;5013223;28;20445;-53
2023/01/07 10:07:27;;;;;;;0.50;0.30;;;;;;;11.78;92.91;100203.97;5005076;28;21009;-54
2023/01/07 10:09:56;;;;;;;0.47;0.47;;;;;;;11.92;92.53;100195.53;5007278;28;20452;-54
2023/01/07 10:12:34;;;;;;;0.47;0.30;;;;;;;11.85;92.38;100199.38;5013370;28;20463;-54
2023/01/07 10:15:03;;;;;;;0.40;0.30;;;;;;;11.83;92.25;100190.56;5013152;28;20460;-54
2023/01/07 10:17:48;;;;;;;0.40;0.40;;;;;;;11.78;92.39;100187.13;5012957;28;20559;-54
2023/01/07 10:20:30;;;;;;;6.30;0.60;;;;;;;11.88;91.35;100188.59;5013127;28;20448;-53
2023/01/07 10:23:03;;;;;;;0.40;0.30;;;;;;;12.12;90.81;100171.72;5012737;28;20449;-54
2023/01/07 10:25:34;;;;;;;1.43;0.50;;;;;;;12.08;91.18;100167.44;5012860;28;20457;-54
2023/01/07 10:28:12;;;;;;;0.87;0.67;;;;;;;11.88;91.98;100147.78;5012777;28;20472;-54
2023/01/07 10:30:43;;;;;;;0.43;0.30;;;;;;;11.83;91.18;100143.50;5012810;28;20552;-54
2023/01/07 10:33:25;;;;;;;0.30;0.20;;;;;;;11.60;92.33;100137.22;5012801;28;20865;-54
2023/01/07 10:36:07;;;;;;;0.30;0.30;;;;;;;11.51;91.71;100136.63;5012622;28;20949;-54
2023/01/07 10:38:38;;;;;;;0.40;0.40;;;;;;;11.68;91.72;100127.16;5003391;28;20552;-54
2023/01/07 10:41:17;;;;;;;0.50;0.30;;;;;;;11.83;91.30;100127.50;5009091;28;20467;-54
2023/01/07 10:44:02;;;;;;;0.67;0.50;;;;;;;12.01;91.50;100120.63;5012846;28;20507;-54
2023/01/07 10:46:58;;;;;;;0.90;0.80;;;;;;;12.08;91.18;100126.63;4993346;28;20445;-54
2023/01/07 10:49:25;;;;;;;0.30;0.20;;;;;;;12.22;91.82;100121.63;5006126;28;20931;-54
2023/01/07 10:52:03;;;;;;;0.47;0.30;;;;;;;12.24;92.04;100126.91;5004961;28;20479;-54
2023/01/07 10:54:53;;;;;;;2.00;1.10;;;;;;;12.32;92.24;100116.81;4997468;28;20463;-54
2023/01/07 10:57:23;;;;;;;0.50;0.40;;;;;;;12.20;91.72;100109.28;5009906;28;20497;-54
2023/01/07 10:59:52;;;;;;;0.97;0.63;;;;;;;12.07;93.13;100109.75;5008103;28;20495;-54
2023/01/07 11:02:21;;;;;;;5.20;1.03;;;;;;;12.12;92.53;100102.47;4995485;28;20453;-54
2023/01/07 11:04:48;;;;;;;0.97;0.97;;;;;;;12.29;93.02;100106.25;5008890;28;20451;-54
2023/01/07 11:07:26;;;;;;;0.60;0.60;;;;;;;12.22;92.45;100107.44;5003706;28;20481;-54
2023/01/07 11:09:55;;;;;;;0.70;0.50;;;;;;;12.13;91.81;100098.84;5010371;28;20444;-54
2023/01/07 11:12:41;;;;;;;0.60;0.53;;;;;;;12.05;92.63;100097.41;5016667;28;20453;-54
2023/01/07 11:15:17;;;;;;;0.60;0.47;;;;;;;12.07;92.07;100093.78;5016735;28;20455;-54
2023/01/07 11:18:04;;;;;;;1.50;0.87;;;;;;;12.08;92.15;100090.19;5016340;28;20492;-54
2023/01/07 11:20:51;;;;;;;0.50;0.40;;;;;;;12.42;91.86;100088.88;5015881;28;20459;-54
2023/01/07 11:23:26;;;;;;;1.07;0.93;;;;;;;12.07;91.62;100075.13;5016203;28;20444;-54
2023/01/07 11:26:03;;;;;;;1.03;0.93;;;;;;;12.23;92.78;100086.06;5016167;28;20502;-54
2023/01/07 11:28:30;;;;;;;0.43;0.33;;;;;;;12.00;92.12;100078.94;4996537;28;20466;-54
2023/01/07 11:30:58;;;;;;;1.13;1.03;;;;;;;11.75;96.06;100068.28;5009594;28;20965;-54
2023/01/07 11:33:40;;;;;;;1.63;0.87;;;;;;;11.73;97.87;100055.97;5003605;28;20455;-53
2023/01/07 11:36:42;;;;;;;1.23;1.00;;;;;;;11.67;99.17;100050.88;5016357;28;20494;-50